Terminal Aerodrome Forecast
Issued by NWS Charleston, SC

Current Version | Previous Version | Text Only | Print | Product List | Glossary Off
Versions: 1 2 3 4 5 6 7 8 9 10 11 12 13 14 15 16 17 18 19 20 21 22 23 24

000
FTUS42 KCHS 030138 AAA
TAFCHS
TAF AMD
KCHS 030138Z 0302/0324 15006KT P6SM VCSH SCT020 BKN080
      TEMPO 0302/0304 4SM SHRA BR SCT015 BKN030
     FM030400 16004KT P6SM SCT025 BKN040
     FM030800 VRB03KT P6SM VCSH SCT015 BKN030
      TEMPO 0309/0312 4SM SHRA BR
     FM031400 20008KT P6SM SCT025 BKN050=

USA.gov is the U.S. government's official web portal to all federal, state and local government web resources and services.